Capitol Logistics 972


EHAM
Schiphol International Airport
Amsterdam, NL
KORD
Chicago O'Hare International Airport
Chicago, US

Activity Log

Date Flight Route Aircraft Duration
10/14/2019 CPX972 BERGI M90 NEXUS UP59 BALIX 6120N N6230 6340N 6350N LIBOR N866A RODBO SEMTO VEPTU PEMLU SSM WYNDE9 B744 9h 16m

Route Details

Aircraft Information
Primary: Boeing 747-400BCF
Backup: Boeing 777-200LRF
Route Data
Distance: 3580nm
Sched. Duration: 8h 44m
Avg. Duration: 9h 16m (+72m)
Times Flown: 1
Recm'd Route: BERGI M90 NEXUS UP59 BALIX 6120N N6230 6340N 6350N LIBOR N866A RODBO SEMTO VEPTU PEMLU SSM WYNDE9
Planned Altitude: 32,000ft
Origin Wx: EHAM 271155Z 15009KT 9999 -RA FEW007 SCT010 BKN013 03/02 Q0996 BECMG BKN007
Dest. Wx: KORD 271151Z 28006KT 10SM -SN FEW023 SCT031 OVC050 M03/M08 A3004 RMK AO2 SNB48 SLP180 4/001 P0000 60000 T10281078 11028 21033 56005
Notes: SEASONAL FLIGHT | PERISHABLE CARGO

Financial History
Total Freight: 183,068lbs
Average Load: 183,068lbs/flt
Fuel Used: 180,000lbs
Avg. Fuel Used: 180,000lbs/flt
Fuel Expense: $144,000
Avg. Fuel Expense: $144,000
Avg. Fuel Cost: $0.80/lbs
Total Gross Income: $968,430
Pilot Pay: $229
Total Expenses: $104,642
Total Revenue: $717,569
Average Revenue: $968,429.75